N116LL EDDM-EDPA
Flight info
| Callsign | N116LL |
|---|---|
| Flight time | N/A |
| Altitude | |
| Route | |
| Aircraft | C182 |
Departure
| Time | 2026-05-07 17:03 |
|---|---|
| Airport | Munich Airport (EDDM) |
Arrival
| Time | N/A |
|---|---|
| Airport | Aalen Heidenheim Elchingen Airfield (EDPA) |
| Time | Latitude | Longitude | Altitude | Speed | Heading |
|---|---|---|---|---|---|
| 2026-05-07 16:39 | 48.35329 | 11.80316 | 1459 ft | 0 kts | 352° |
| 2026-05-07 16:54 | 48.35336 | 11.80313 | 1458 ft | 5 kts | 336° |
| 2026-05-07 16:54 | 48.35358 | 11.80244 | 1459 ft | 10 kts | 262° |
| 2026-05-07 16:54 | 48.35323 | 11.80187 | 1459 ft | 0 kts | 169° |
| 2026-05-07 16:55 | 48.35307 | 11.80192 | 1459 ft | 7 kts | 168° |
| 2026-05-07 16:55 | 48.35231 | 11.80207 | 1459 ft | 16 kts | 177° |
| 2026-05-07 16:55 | 48.35193 | 11.80210 | 1460 ft | 4 kts | 168° |
| 2026-05-07 16:55 | 48.35140 | 11.80198 | 1460 ft | 11 kts | 202° |
| 2026-05-07 16:56 | 48.35109 | 11.80135 | 1460 ft | 2 kts | 248° |
| 2026-05-07 16:56 | 48.35097 | 11.80053 | 1461 ft | 13 kts | 261° |
| 2026-05-07 16:56 | 48.35072 | 11.79790 | 1462 ft | 12 kts | 261° |
| 2026-05-07 16:57 | 48.35068 | 11.79757 | 1462 ft | 2 kts | 256° |
| 2026-05-07 16:57 | 48.35067 | 11.79744 | 1462 ft | 1 kts | 262° |
| 2026-05-07 16:57 | 48.35066 | 11.79740 | 1462 ft | 0 kts | 262° |
| 2026-05-07 16:58 | 48.35065 | 11.79733 | 1462 ft | 2 kts | 260° |
| 2026-05-07 16:59 | 48.35061 | 11.79715 | 1462 ft | 5 kts | 243° |
| 2026-05-07 16:59 | 48.35038 | 11.79696 | 1462 ft | 12 kts | 194° |
| 2026-05-07 16:59 | 48.34969 | 11.79683 | 1463 ft | 11 kts | 190° |
| 2026-05-07 16:59 | 48.34884 | 11.79688 | 1463 ft | 9 kts | 173° |
| 2026-05-07 17:00 | 48.34880 | 11.79689 | 1463 ft | 1 kts | 173° |
| 2026-05-07 17:00 | 48.34870 | 11.79691 | 1463 ft | 0 kts | 172° |
| 2026-05-07 17:01 | 48.34869 | 11.79691 | 1463 ft | 1 kts | 172° |
| 2026-05-07 17:01 | 48.34804 | 11.79703 | 1464 ft | 17 kts | 177° |
| 2026-05-07 17:01 | 48.34666 | 11.79606 | 1465 ft | 26 kts | 227° |
| 2026-05-07 17:01 | 48.34573 | 11.79437 | 1466 ft | 16 kts | 230° |
| 2026-05-07 17:02 | 48.34557 | 11.79407 | 1467 ft | 0 kts | 233° |
| 2026-05-07 17:02 | 48.34557 | 11.79406 | 1467 ft | 2 kts | 233° |
| 2026-05-07 17:03 | 48.34452 | 11.79165 | 1468 ft | 55 kts | 242° |
| 2026-05-07 17:03 | 48.34307 | 11.78435 | 1611 ft | 83 kts | 261° |
| 2026-05-07 17:03 | 48.34223 | 11.77706 | 2107 ft | 51 kts | 255° |
| 2026-05-07 17:03 | 48.34207 | 11.77078 | 2296 ft | 64 kts | 309° |
| 2026-05-07 17:04 | 48.34635 | 11.76931 | 2495 ft | 84 kts | 27° |
| 2026-05-07 17:04 | 48.35097 | 11.77378 | 2833 ft | 89 kts | 35° |
| 2026-05-07 17:04 | 48.35525 | 11.78148 | 2989 ft | 110 kts | 81° |
| 2026-05-07 17:04 | 48.35345 | 11.79044 | 3213 ft | 100 kts | 18° |
| 2026-05-07 17:05 | 48.35627 | 11.78302 | 3180 ft | 119 kts | 232° |
| 2026-05-07 17:05 | 48.35049 | 11.78674 | 2973 ft | 129 kts | 82° |
| 2026-05-07 17:05 | 48.35636 | 11.78742 | 2555 ft | 143 kts | 278° |
| 2026-05-07 17:05 | 48.35450 | 11.78592 | 2693 ft | 103 kts | 345° |
| 2026-05-07 17:06 | 48.35521 | 11.78660 | 2644 ft | 91 kts | 332° |
| 2026-05-07 17:06 | 48.35189 | 11.78260 | 2332 ft | 125 kts | 124° |
| 2026-05-07 17:06 | 48.35575 | 11.78536 | 2148 ft | 129 kts | 268° |
| 2026-05-07 17:06 | 48.34985 | 11.78523 | 2089 ft | 126 kts | 97° |
| 2026-05-07 17:07 | 48.35578 | 11.78889 | 2240 ft | 116 kts | 306° |
| 2026-05-07 17:07 | 48.35352 | 11.78791 | 2204 ft | 103 kts | 84° |
| 2026-05-07 17:07 | 48.35575 | 11.79912 | 2301 ft | 121 kts | 73° |
| 2026-05-07 17:07 | 48.36025 | 11.80865 | 2062 ft | 126 kts | 340° |
| 2026-05-07 17:08 | 48.36900 | 11.80740 | 2213 ft | 115 kts | 15° |
| 2026-05-07 17:08 | 48.37623 | 11.81127 | 2549 ft | 112 kts | 21° |
| 2026-05-07 17:08 | 48.38349 | 11.81578 | 2795 ft | 112 kts | 22° |
| 2026-05-07 17:08 | 48.39066 | 11.82012 | 3041 ft | 113 kts | 20° |
| 2026-05-07 17:09 | 48.39837 | 11.82438 | 3108 ft | 125 kts | 20° |
| 2026-05-07 17:09 | 48.40687 | 11.82749 | 3083 ft | 126 kts | 359° |
| 2026-05-07 17:09 | 48.41509 | 11.82618 | 3095 ft | 118 kts | 344° |
| 2026-05-07 17:09 | 48.42341 | 11.82370 | 3106 ft | 126 kts | 348° |
| 2026-05-07 17:10 | 48.43222 | 11.82129 | 3099 ft | 130 kts | 348° |
| 2026-05-07 17:10 | 48.44113 | 11.81888 | 3093 ft | 131 kts | 348° |
| 2026-05-07 17:10 | 48.45006 | 11.81647 | 3092 ft | 131 kts | 349° |
| 2026-05-07 17:10 | 48.45895 | 11.81405 | 3093 ft | 131 kts | 347° |
| 2026-05-07 17:11 | 48.46780 | 11.81111 | 3094 ft | 130 kts | 346° |
| 2026-05-07 17:11 | 48.47661 | 11.80812 | 3093 ft | 130 kts | 346° |
| 2026-05-07 17:11 | 48.48541 | 11.80511 | 3092 ft | 130 kts | 346° |
| 2026-05-07 17:11 | 48.49420 | 11.80208 | 3092 ft | 130 kts | 346° |
| 2026-05-07 17:12 | 48.50305 | 11.79904 | 3091 ft | 130 kts | 346° |
| 2026-05-07 17:12 | 48.51164 | 11.79502 | 3097 ft | 129 kts | 336° |
| 2026-05-07 17:12 | 48.51978 | 11.78938 | 3099 ft | 130 kts | 333° |
| 2026-05-07 17:12 | 48.52766 | 11.78348 | 3198 ft | 123 kts | 332° |
| 2026-05-07 17:13 | 48.53508 | 11.77785 | 3385 ft | 117 kts | 332° |
| 2026-05-07 17:13 | 48.54211 | 11.77243 | 3616 ft | 112 kts | 332° |
| 2026-05-07 17:13 | 48.54893 | 11.76743 | 3847 ft | 109 kts | 332° |
| 2026-05-07 17:13 | 48.55552 | 11.76222 | 4058 ft | 101 kts | 332° |
| 2026-05-07 17:14 | 48.56115 | 11.75779 | 4272 ft | 85 kts | 331° |
| 2026-05-07 17:14 | 48.56615 | 11.75372 | 4505 ft | 81 kts | 330° |
| 2026-05-07 17:14 | 48.57118 | 11.74985 | 4738 ft | 83 kts | 332° |
| 2026-05-07 17:14 | 48.57647 | 11.74594 | 4984 ft | 85 kts | 333° |
| 2026-05-07 17:15 | 48.58190 | 11.74196 | 5230 ft | 89 kts | 333° |
| 2026-05-07 17:15 | 48.58773 | 11.73770 | 5454 ft | 98 kts | 333° |
| 2026-05-07 17:15 | 48.59394 | 11.73317 | 5710 ft | 99 kts | 333° |
| 2026-05-07 17:15 | 48.59995 | 11.72872 | 6040 ft | 94 kts | 332° |
| 2026-05-07 17:16 | 48.60567 | 11.72446 | 6397 ft | 90 kts | 332° |
| 2026-05-07 17:16 | 48.61097 | 11.72053 | 6770 ft | 79 kts | 332° |
| 2026-05-07 17:16 | 48.61521 | 11.71730 | 7126 ft | 57 kts | 329° |
| 2026-05-07 17:16 | 48.61855 | 11.71955 | 6781 ft | 43 kts | 35° |
| 2026-05-07 17:17 | 48.62143 | 11.71742 | 6370 ft | 82 kts | 331° |
| 2026-05-07 17:17 | 48.62645 | 11.71336 | 6531 ft | 76 kts | 330° |
| 2026-05-07 17:17 | 48.63066 | 11.70939 | 6736 ft | 80 kts | 326° |
| 2026-05-07 17:17 | 48.63613 | 11.70452 | 6754 ft | 102 kts | 330° |
| 2026-05-07 17:18 | 48.64268 | 11.69917 | 6726 ft | 113 kts | 331° |
| 2026-05-07 17:18 | 48.64977 | 11.69355 | 6712 ft | 117 kts | 333° |
| 2026-05-07 17:18 | 48.65724 | 11.68837 | 6712 ft | 117 kts | 335° |
| 2026-05-07 17:18 | 48.66458 | 11.68346 | 6711 ft | 118 kts | 335° |
| 2026-05-07 17:19 | 48.67216 | 11.67842 | 6711 ft | 118 kts | 335° |
| 2026-05-07 17:19 | 48.67968 | 11.67343 | 6711 ft | 118 kts | 335° |
| 2026-05-07 17:19 | 48.68711 | 11.66851 | 6731 ft | 117 kts | 335° |
| 2026-05-07 17:19 | 48.69454 | 11.66352 | 6854 ft | 121 kts | 335° |
| 2026-05-07 17:20 | 48.70238 | 11.65834 | 6983 ft | 124 kts | 335° |
| 2026-05-07 17:20 | 48.71036 | 11.65315 | 7103 ft | 126 kts | 335° |
| 2026-05-07 17:20 | 48.71839 | 11.64793 | 7221 ft | 126 kts | 335° |
| 2026-05-07 17:20 | 48.72643 | 11.64272 | 7377 ft | 124 kts | 335° |
| 2026-05-07 17:21 | 48.73416 | 11.63770 | 7604 ft | 118 kts | 335° |
| 2026-05-07 17:21 | 48.74153 | 11.63291 | 7845 ft | 115 kts | 335° |
| 2026-05-07 17:21 | 48.74873 | 11.62823 | 8094 ft | 111 kts | 335° |
| 2026-05-07 17:21 | 48.75564 | 11.62376 | 8350 ft | 107 kts | 335° |
| 2026-05-07 17:22 | 48.76232 | 11.61944 | 8602 ft | 103 kts | 335° |
| 2026-05-07 17:22 | 48.76883 | 11.61523 | 8853 ft | 101 kts | 335° |
| 2026-05-07 17:22 | 48.77554 | 11.61093 | 8966 ft | 110 kts | 336° |
| 2026-05-07 17:22 | 48.78301 | 11.60618 | 8956 ft | 121 kts | 336° |
| 2026-05-07 17:23 | 48.79075 | 11.60125 | 8950 ft | 121 kts | 336° |
| 2026-05-07 17:23 | 48.79854 | 11.59627 | 8963 ft | 123 kts | 336° |
| 2026-05-07 17:23 | 48.80639 | 11.59124 | 8968 ft | 124 kts | 336° |
| 2026-05-07 17:23 | 48.81429 | 11.58605 | 8969 ft | 124 kts | 334° |
| 2026-05-07 17:24 | 48.82210 | 11.58044 | 8969 ft | 125 kts | 333° |
| 2026-05-07 17:24 | 48.82997 | 11.57471 | 8967 ft | 125 kts | 333° |
| 2026-05-07 17:24 | 48.83774 | 11.56903 | 8969 ft | 125 kts | 333° |
| 2026-05-07 17:24 | 48.84556 | 11.56333 | 8969 ft | 125 kts | 333° |
| 2026-05-07 17:25 | 48.85335 | 11.55766 | 8969 ft | 125 kts | 333° |
| 2026-05-07 17:25 | 48.86117 | 11.55200 | 8969 ft | 125 kts | 333° |
| 2026-05-07 17:25 | 48.86900 | 11.54633 | 8969 ft | 125 kts | 333° |
| 2026-05-07 17:25 | 48.87681 | 11.54070 | 8969 ft | 125 kts | 333° |
| 2026-05-07 17:26 | 48.88470 | 11.53502 | 8969 ft | 125 kts | 333° |
| 2026-05-07 17:26 | 48.89253 | 11.52939 | 8969 ft | 125 kts | 333° |
| 2026-05-07 17:26 | 48.90037 | 11.52376 | 8968 ft | 125 kts | 333° |
| 2026-05-07 17:26 | 48.90820 | 11.51814 | 8969 ft | 125 kts | 333° |
| 2026-05-07 17:27 | 48.91602 | 11.51254 | 8969 ft | 125 kts | 333° |
| 2026-05-07 17:27 | 48.92387 | 11.50694 | 8969 ft | 125 kts | 333° |
| 2026-05-07 17:27 | 48.93170 | 11.50135 | 8969 ft | 125 kts | 333° |
| 2026-05-07 17:27 | 48.93961 | 11.49572 | 8969 ft | 125 kts | 334° |
| 2026-05-07 17:28 | 48.94744 | 11.49016 | 8968 ft | 124 kts | 334° |
| 2026-05-07 17:28 | 48.95520 | 11.48465 | 8968 ft | 124 kts | 334° |
| 2026-05-07 17:28 | 48.96297 | 11.47914 | 8969 ft | 123 kts | 334° |
| 2026-05-07 17:28 | 48.97070 | 11.47366 | 8970 ft | 123 kts | 334° |
| 2026-05-07 17:29 | 48.97842 | 11.46820 | 8970 ft | 123 kts | 334° |
| 2026-05-07 17:29 | 48.98615 | 11.46274 | 8969 ft | 123 kts | 334° |
| 2026-05-07 17:29 | 48.99396 | 11.45724 | 8969 ft | 123 kts | 334° |
| 2026-05-07 17:29 | 49.00170 | 11.45180 | 8969 ft | 123 kts | 334° |
| 2026-05-07 17:30 | 49.00944 | 11.44635 | 8969 ft | 123 kts | 334° |
| 2026-05-07 17:30 | 49.01719 | 11.44093 | 8969 ft | 123 kts | 334° |
| 2026-05-07 17:30 | 49.02489 | 11.43543 | 8970 ft | 123 kts | 333° |
| 2026-05-07 17:30 | 49.03254 | 11.42964 | 8969 ft | 123 kts | 332° |
| 2026-05-07 17:31 | 49.04017 | 11.42384 | 8968 ft | 123 kts | 333° |
| 2026-05-07 17:31 | 49.04791 | 11.41816 | 8969 ft | 123 kts | 333° |
| 2026-05-07 17:31 | 49.05561 | 11.41256 | 8969 ft | 123 kts | 333° |
| 2026-05-07 17:31 | 49.06330 | 11.40698 | 8969 ft | 123 kts | 333° |
| 2026-05-07 17:32 | 49.07101 | 11.40139 | 8969 ft | 123 kts | 333° |
| 2026-05-07 17:32 | 49.07870 | 11.39584 | 8969 ft | 123 kts | 333° |
| 2026-05-07 17:32 | 49.08643 | 11.39026 | 8969 ft | 123 kts | 333° |
| 2026-05-07 17:32 | 49.09161 | 11.38653 | 8969 ft | 123 kts | 333° |
| 2026-05-07 17:33 | 49.10189 | 11.37913 | 8969 ft | 123 kts | 333° |
| 2026-05-07 17:33 | 49.10962 | 11.37358 | 8969 ft | 123 kts | 333° |
| 2026-05-07 17:33 | 49.11732 | 11.36807 | 8969 ft | 123 kts | 334° |
| 2026-05-07 17:33 | 49.12505 | 11.36254 | 8969 ft | 123 kts | 334° |
| 2026-05-07 17:34 | 49.13279 | 11.35701 | 8969 ft | 123 kts | 334° |
| 2026-05-07 17:34 | 49.14052 | 11.35151 | 8968 ft | 123 kts | 334° |
| 2026-05-07 17:34 | 49.14833 | 11.34595 | 8916 ft | 126 kts | 334° |
| 2026-05-07 17:34 | 49.15626 | 11.34033 | 8907 ft | 125 kts | 334° |
| 2026-05-07 17:35 | 49.16432 | 11.33463 | 8772 ft | 131 kts | 334° |
| 2026-05-07 17:35 | 49.17188 | 11.32947 | 8535 ft | 107 kts | 335° |
| 2026-05-07 17:35 | 49.17804 | 11.32512 | 8261 ft | 100 kts | 333° |
| 2026-05-07 17:35 | 49.18468 | 11.32026 | 7986 ft | 108 kts | 334° |
| 2026-05-07 17:36 | 49.19122 | 11.31563 | 7695 ft | 100 kts | 334° |
| 2026-05-07 17:36 | 49.19737 | 11.31124 | 7407 ft | 97 kts | 334° |
| 2026-05-07 17:36 | 49.20326 | 11.30693 | 7315 ft | 92 kts | 335° |
| 2026-05-07 17:36 | 49.20949 | 11.30222 | 7429 ft | 111 kts | 334° |
| 2026-05-07 17:37 | 49.21700 | 11.29685 | 7411 ft | 127 kts | 335° |
| 2026-05-07 17:37 | 49.22472 | 11.29133 | 7386 ft | 110 kts | 335° |
| 2026-05-07 17:37 | 49.23099 | 11.28670 | 7410 ft | 93 kts | 334° |
| 2026-05-07 17:37 | 49.23647 | 11.28261 | 7427 ft | 83 kts | 334° |
| 2026-05-07 17:38 | 49.24154 | 11.27888 | 7422 ft | 80 kts | 338° |
| 2026-05-07 17:38 | 49.24687 | 11.27578 | 7328 ft | 89 kts | 340° |
| 2026-05-07 17:38 | 49.25419 | 11.27182 | 6818 ft | 135 kts | 341° |
| 2026-05-07 17:38 | 49.26385 | 11.26671 | 6245 ft | 146 kts | 341° |
| 2026-05-07 17:39 | 49.27216 | 11.26231 | 5837 ft | 109 kts | 340° |
| 2026-05-07 17:39 | 49.27887 | 11.25860 | 5320 ft | 107 kts | 340° |